This is the latest recevied weather packets stored in our database for station/object VK5GR-12. If no packets are shown the sender has not sent any weather packets the latest 10 day(s).
| Time | Temp. | Humidity | Pressure | Rain* | Wind** | Luminosity | Snow |
|---|---|---|---|---|---|---|---|
| 1777838227 | 13.89° C | 93% | 1011.2 hPa | 0 mm | - | 0 W/m² | - |
| 1777837322 | 13.89° C | 93% | 1011.4 hPa | 0 mm | - | 0 W/m² | - |
| 1777836423 | 13.89° C | 92% | 1011.3 hPa | 0 mm | - | 0 W/m² | - |
| 1777835518 | 13.89° C | 89% | 1011.2 hPa | 0 mm | - | 0 W/m² | - |
| 1777834615 | 14.44° C | 87% | 1011 hPa | 0 mm | - | 0 W/m² | - |
| 1777833714 | 13.89° C | 89% | 1010.9 hPa | 0 mm | - | 0 W/m² | - |
| 1777832811 | 13.89° C | 90% | 1011 hPa | 0 mm | - | 0 W/m² | - |
| 1777831909 | 13.89° C | 92% | 1011 hPa | 0 mm | - | 0 W/m² | - |
| 1777831006 | 13.33° C | 93% | 1011.1 hPa | 0 mm | - | 0 W/m² | - |
| 1777830103 | 13.33° C | 94% | 1011.1 hPa | 0 mm | - | 0 W/m² | - |
| 1777829204 | 13.33° C | 94% | 1011.3 hPa | 0 mm | - | 0 W/m² | - |
| 1777828300 | 13.33° C | 94% | 1011.4 hPa | 0 mm | - | 0 W/m² | - |
| 1777827397 | 13.33° C | 95% | 1011.3 hPa | 0 mm | - | 0 W/m² | - |
| 1777826492 | 13.33° C | 95% | 1011.4 hPa | 0 mm | - | 0 W/m² | - |
| 1777825589 | 13.33° C | 95% | 1011.4 hPa | 0 mm | - | 0 W/m² | - |
| 1777824685 | 13.33° C | 95% | 1011.6 hPa | 6.1 mm | - | 0 W/m² | - |
| 1777823780 | 12.78° C | 94% | 1011.5 hPa | 1.27 mm | - | 0 W/m² | - |
| 1777822879 | 12.78° C | 94% | 1011.5 hPa | 0 mm | - | 0 W/m² | - |
| 1777821977 | 12.78° C | 94% | 1011.5 hPa | 0 mm | - | 0 W/m² | - |
| 1777821075 | 12.78° C | 92% | 1011.8 hPa | 21.08 mm | - | 0 W/m² | - |
| 1777820170 | 13.33° C | 89% | 1011.4 hPa | 0 mm | - | 0 W/m² | - |
| 1777819268 | 13.33° C | 89% | 1011.7 hPa | 0 mm | - | 0 W/m² | - |
| 1777818365 | 13.33° C | 89% | 1011.8 hPa | 0 mm | - | 0 W/m² | - |
| 1777817461 | 13.33° C | 88% | 1011.9 hPa | 0 mm | - | 0 W/m² | - |
| 1777816558 | 13.33° C | 89% | 1012.1 hPa | 0 mm | - | 0 W/m² | - |
* Rain latest hour (hover to see other rain measurements)
** Current wind speed in m/s (hover to see current wind gust speed)